sensor_id;sensor_type;location;lat;lon;timestamp;pressure;altitude;pressure_sealevel;temperature;humidity
62976;BME280;49071;0.000;0.000;2022-11-20T07:36:35;100338.78;;;16.67;39.98
62976;BME280;49071;0.000;0.000;2022-11-20T07:39:35;100343.19;;;16.86;39.63
62976;BME280;49071;0.000;0.000;2022-11-20T07:42:35;100341.84;;;17.09;39.41
62976;BME280;49071;0.000;0.000;2022-11-20T07:45:35;100340.75;;;17.25;39.26
62976;BME280;49071;0.000;0.000;2022-11-20T07:48:36;100337.66;;;17.41;39.02
62976;BME280;49071;0.000;0.000;2022-11-20T07:51:36;100333.28;;;17.59;38.81
62976;BME280;49071;0.000;0.000;2022-11-20T07:54:36;100332.19;;;17.75;38.70
62976;BME280;49071;0.000;0.000;2022-11-20T07:57:36;100332.19;;;17.75;38.86
62976;BME280;49071;0.000;0.000;2022-11-20T08:00:37;100331.88;;;17.82;38.58
62976;BME280;49071;0.000;0.000;2022-11-20T08:03:37;100326.59;;;17.75;38.80
62976;BME280;49071;0.000;0.000;2022-11-20T08:06:37;100327.81;;;17.83;38.65
62976;BME280;49071;0.000;0.000;2022-11-20T08:09:37;100322.09;;;17.86;38.68
62976;BME280;49071;0.000;0.000;2022-11-20T08:12:47;100317.72;;;17.95;38.66
62976;BME280;49071;0.000;0.000;2022-11-20T08:16:06;100327.66;;;17.96;38.63
62976;BME280;49071;0.000;0.000;2022-11-20T08:19:07;100320.81;;;17.78;38.60
62976;BME280;49071;0.000;0.000;2022-11-20T08:22:07;100318.34;;;17.89;38.44
62976;BME280;49071;0.000;0.000;2022-11-20T08:25:07;100323.94;;;17.89;38.45
62976;BME280;49071;0.000;0.000;2022-11-20T08:28:08;100326.50;;;18.11;38.14
62976;BME280;49071;0.000;0.000;2022-11-20T08:31:09;100322.94;;;18.11;38.34
62976;BME280;49071;0.000;0.000;2022-11-20T08:34:09;100324.44;;;18.21;37.97
62976;BME280;49071;0.000;0.000;2022-11-20T08:37:09;100320.41;;;18.22;38.10
62976;BME280;49071;0.000;0.000;2022-11-20T08:40:10;100317.75;;;18.28;38.03
62976;BME280;49071;0.000;0.000;2022-11-20T08:43:11;100316.97;;;18.27;38.19
62976;BME280;49071;0.000;0.000;2022-11-20T08:46:11;100314.50;;;18.29;38.25
62976;BME280;49071;0.000;0.000;2022-11-20T08:49:12;100314.81;;;18.22;38.24
62976;BME280;49071;0.000;0.000;2022-11-20T08:52:12;100326.03;;;18.13;38.40
62976;BME280;49071;0.000;0.000;2022-11-20T08:55:12;100321.88;;;17.99;38.82
62976;BME280;49071;0.000;0.000;2022-11-20T08:58:13;100319.13;;;17.90;39.02
62976;BME280;49071;0.000;0.000;2022-11-20T09:01:13;100311.22;;;17.79;38.93
62976;BME280;49071;0.000;0.000;2022-11-20T09:04:13;100310.59;;;17.75;39.13
62976;BME280;49071;0.000;0.000;2022-11-20T09:07:14;100315.09;;;17.73;39.35
62976;BME280;49071;0.000;0.000;2022-11-20T09:10:14;100308.88;;;17.78;39.06
62976;BME280;49071;0.000;0.000;2022-11-20T09:13:14;100312.81;;;17.71;39.37
62976;BME280;49071;0.000;0.000;2022-11-20T09:16:14;100314.34;;;17.81;39.18
62976;BME280;49071;0.000;0.000;2022-11-20T09:19:15;100314.66;;;17.83;39.08
62976;BME280;49071;0.000;0.000;2022-11-20T09:22:15;100318.22;;;17.84;38.96
62976;BME280;49071;0.000;0.000;2022-11-20T09:25:15;100307.31;;;17.95;38.84
62976;BME280;49071;0.000;0.000;2022-11-20T09:28:16;100305.03;;;17.84;39.04
62976;BME280;49071;0.000;0.000;2022-11-20T09:31:24;100311.56;;;17.81;39.07
62976;BME280;49071;0.000;0.000;2022-11-20T09:34:25;100303.19;;;17.81;39.13
62976;BME280;49071;0.000;0.000;2022-11-20T09:37:26;100306.91;;;17.69;39.56
62976;BME280;49071;0.000;0.000;2022-11-20T09:40:26;100302.53;;;17.68;39.69
62976;BME280;49071;0.000;0.000;2022-11-20T09:43:30;100294.59;;;17.76;39.66
62976;BME280;49071;0.000;0.000;2022-11-20T09:53:04;100282.31;;;18.01;39.17
62976;BME280;49071;0.000;0.000;2022-11-20T09:56:08;100281.63;;;18.15;39.12
62976;BME280;49071;0.000;0.000;2022-11-20T09:59:17;100280.97;;;18.20;39.34
62976;BME280;49071;0.000;0.000;2022-11-20T10:02:27;100288.38;;;18.32;39.05
62976;BME280;49071;0.000;0.000;2022-11-20T10:05:30;100277.97;;;18.57;38.94
62976;BME280;49071;0.000;0.000;2022-11-20T10:08:39;100272.41;;;18.72;38.71
62976;BME280;49071;0.000;0.000;2022-11-20T10:21:03;100288.66;;;18.92;38.45
62976;BME280;49071;0.000;0.000;2022-11-20T10:27:36;100280.72;;;18.66;39.13
62976;BME280;49071;0.000;0.000;2022-11-20T10:30:43;100279.81;;;18.60;39.10
62976;BME280;49071;0.000;0.000;2022-11-20T10:33:44;100283.75;;;18.53;39.28
62976;BME280;49071;0.000;0.000;2022-11-20T10:36:50;100285.47;;;18.51;39.53
62976;BME280;49071;0.000;0.000;2022-11-20T10:39:57;100278.97;;;18.45;39.66
62976;BME280;49071;0.000;0.000;2022-11-20T10:43:01;100277.28;;;18.38;39.67
62976;BME280;49071;0.000;0.000;2022-11-20T10:46:08;100270.88;;;18.23;39.99
62976;BME280;49071;0.000;0.000;2022-11-20T10:49:19;100266.72;;;18.09;40.03
62976;BME280;49071;0.000;0.000;2022-11-20T10:55:50;100273.03;;;17.85;40.09
62976;BME280;49071;0.000;0.000;2022-11-20T10:58:59;100265.91;;;17.84;40.22
62976;BME280;49071;0.000;0.000;2022-11-20T11:02:01;100264.31;;;17.92;40.33
62976;BME280;49071;0.000;0.000;2022-11-20T11:05:05;100261.81;;;17.95;40.48
62976;BME280;49071;0.000;0.000;2022-11-20T11:08:10;100258.69;;;18.02;40.48
62976;BME280;49071;0.000;0.000;2022-11-20T11:11:30;100252.44;;;18.07;40.25
62976;BME280;49071;0.000;0.000;2022-11-20T11:14:41;100259.59;;;18.08;40.52
62976;BME280;49071;0.000;0.000;2022-11-20T11:17:47;100265.75;;;18.21;40.29
62976;BME280;49071;0.000;0.000;2022-11-20T11:20:51;100258.44;;;18.24;40.32
62976;BME280;49071;0.000;0.000;2022-11-20T11:24:00;100260.34;;;18.42;40.80
62976;BME280;49071;0.000;0.000;2022-11-20T11:27:02;100258.09;;;18.79;41.12
62976;BME280;49071;0.000;0.000;2022-11-20T11:30:14;100260.19;;;19.08;41.28
62976;BME280;49071;0.000;0.000;2022-11-20T11:33:18;100258.38;;;19.05;40.79
62976;BME280;49071;0.000;0.000;2022-11-20T11:36:20;100260.13;;;19.17;40.76
62976;BME280;49071;0.000;0.000;2022-11-20T11:39:22;100252.50;;;19.33;40.66
62976;BME280;49071;0.000;0.000;2022-11-20T11:42:23;100238.91;;;19.40;40.57
62976;BME280;49071;0.000;0.000;2022-11-20T11:45:23;100247.31;;;19.55;40.83
62976;BME280;49071;0.000;0.000;2022-11-20T11:48:23;100247.91;;;19.74;40.72
62976;BME280;49071;0.000;0.000;2022-11-20T11:51:38;100245.94;;;19.80;40.50
62976;BME280;49071;0.000;0.000;2022-11-20T11:54:52;100242.25;;;19.59;40.75
62976;BME280;49071;0.000;0.000;2022-11-20T11:57:54;100246.44;;;19.34;40.74
62976;BME280;49071;0.000;0.000;2022-11-20T12:01:22;100236.66;;;19.15;41.09
62976;BME280;49071;0.000;0.000;2022-11-20T12:13:44;100234.13;;;19.02;41.55
62976;BME280;49071;0.000;0.000;2022-11-20T12:16:45;100226.03;;;19.04;41.56
62976;BME280;49071;0.000;0.000;2022-11-20T12:19:46;100220.44;;;19.04;41.72
62976;BME280;49071;0.000;0.000;2022-11-20T12:25:54;100223.13;;;18.98;42.46
62976;BME280;49071;0.000;0.000;2022-11-20T12:32:06;100217.66;;;19.04;42.46
62976;BME280;49071;0.000;0.000;2022-11-20T12:58:12;100201.09;;;19.66;43.01
62976;BME280;49071;0.000;0.000;2022-11-20T13:07:59;100200.25;;;19.45;43.05
62976;BME280;49071;0.000;0.000;2022-11-20T13:11:07;100198.72;;;19.44;43.17
62976;BME280;49071;0.000;0.000;2022-11-20T13:17:30;100185.50;;;19.29;43.35
62976;BME280;49071;0.000;0.000;2022-11-20T13:20:34;100177.69;;;19.18;43.44
62976;BME280;49071;0.000;0.000;2022-11-20T13:23:34;100139.91;;;18.84;43.43
62976;BME280;49071;0.000;0.000;2022-11-20T13:26:35;100179.50;;;19.07;43.44
62976;BME280;49071;0.000;0.000;2022-11-20T13:29:36;100172.66;;;19.08;43.37
62976;BME280;49071;0.000;0.000;2022-11-20T13:32:47;100174.84;;;18.89;43.41
62976;BME280;49071;0.000;0.000;2022-11-20T13:35:54;100179.22;;;18.90;43.51
62976;BME280;49071;0.000;0.000;2022-11-20T13:38:55;100172.72;;;18.84;43.62
62976;BME280;49071;0.000;0.000;2022-11-20T13:42:00;100173.13;;;18.67;43.79
62976;BME280;49071;0.000;0.000;2022-11-20T13:45:01;100168.00;;;18.51;44.70
62976;BME280;49071;0.000;0.000;2022-11-20T13:48:03;100168.78;;;18.51;44.57
62976;BME280;49071;0.000;0.000;2022-11-20T13:51:09;100167.53;;;18.28;44.24
62976;BME280;49071;0.000;0.000;2022-11-20T13:57:32;100167.31;;;17.93;44.16
62976;BME280;49071;0.000;0.000;2022-11-20T14:00:43;100163.56;;;17.96;43.94
62976;BME280;49071;0.000;0.000;2022-11-20T14:03:43;100165.88;;;17.98;43.91
62976;BME280;49071;0.000;0.000;2022-11-20T14:06:44;100155.63;;;17.95;43.88
62976;BME280;49071;0.000;0.000;2022-11-20T14:09:49;100153.16;;;17.97;43.73
62976;BME280;49071;0.000;0.000;2022-11-20T14:12:50;100153.75;;;18.01;43.60
62976;BME280;49071;0.000;0.000;2022-11-20T14:15:56;100150.41;;;18.11;43.40
62976;BME280;49071;0.000;0.000;2022-11-20T14:18:56;100153.91;;;18.21;43.21
62976;BME280;49071;0.000;0.000;2022-11-20T14:22:08;100150.91;;;18.34;42.85
62976;BME280;49071;0.000;0.000;2022-11-20T14:28:17;100153.38;;;18.56;42.43
62976;BME280;49071;0.000;0.000;2022-11-20T14:31:23;100144.41;;;18.67;42.01
62976;BME280;49071;0.000;0.000;2022-11-20T14:34:25;100143.88;;;18.78;41.96
62976;BME280;49071;0.000;0.000;2022-11-20T14:37:26;100138.59;;;18.94;41.50
62976;BME280;49071;0.000;0.000;2022-11-20T14:40:29;100139.25;;;19.04;41.46
62976;BME280;49071;0.000;0.000;2022-11-20T14:43:30;100132.00;;;19.12;41.09
62976;BME280;49071;0.000;0.000;2022-11-20T14:46:30;100121.78;;;19.09;41.19
62976;BME280;49071;0.000;0.000;2022-11-20T14:49:31;100120.91;;;19.18;40.94
62976;BME280;49071;0.000;0.000;2022-11-20T14:52:32;100120.50;;;19.25;40.64
62976;BME280;49071;0.000;0.000;2022-11-20T14:55:38;100116.19;;;19.24;40.54
62976;BME280;49071;0.000;0.000;2022-11-20T14:58:39;100130.28;;;19.15;40.87
62976;BME280;49071;0.000;0.000;2022-11-20T15:01:39;100125.34;;;19.10;40.68
62976;BME280;49071;0.000;0.000;2022-11-20T15:04:57;100123.13;;;18.99;40.91
62976;BME280;49071;0.000;0.000;2022-11-20T15:08:06;100124.19;;;18.87;41.06
62976;BME280;49071;0.000;0.000;2022-11-20T15:11:17;100128.97;;;18.71;41.34
62976;BME280;49071;0.000;0.000;2022-11-20T15:14:18;100123.09;;;18.69;41.35
62976;BME280;49071;0.000;0.000;2022-11-20T15:17:18;100123.47;;;18.62;41.35
62976;BME280;49071;0.000;0.000;2022-11-20T15:20:18;100133.19;;;18.52;41.65
62976;BME280;49071;0.000;0.000;2022-11-20T15:23:19;100117.06;;;18.47;41.60
62976;BME280;49071;0.000;0.000;2022-11-20T15:26:28;100121.69;;;18.35;41.87
62976;BME280;49071;0.000;0.000;2022-11-20T15:29:28;100120.31;;;18.30;41.91
62976;BME280;49071;0.000;0.000;2022-11-20T15:32:28;100112.59;;;18.25;41.98
62976;BME280;49071;0.000;0.000;2022-11-20T15:35:29;100113.91;;;18.15;42.02
62976;BME280;49071;0.000;0.000;2022-11-20T15:38:29;100112.34;;;18.14;41.89
62976;BME280;49071;0.000;0.000;2022-11-20T15:41:29;100108.69;;;18.08;42.08
62976;BME280;49071;0.000;0.000;2022-11-20T15:44:29;100102.03;;;18.05;42.22
62976;BME280;49071;0.000;0.000;2022-11-20T15:47:31;100107.72;;;18.11;42.27
62976;BME280;49071;0.000;0.000;2022-11-20T15:50:37;100101.78;;;18.18;42.06
62976;BME280;49071;0.000;0.000;2022-11-20T15:53:38;100104.50;;;18.27;42.16
62976;BME280;49071;0.000;0.000;2022-11-20T15:56:40;100104.69;;;18.39;42.12
62976;BME280;49071;0.000;0.000;2022-11-20T15:59:40;100090.72;;;18.39;41.94
62976;BME280;49071;0.000;0.000;2022-11-20T16:02:41;100098.28;;;18.47;41.78
62976;BME280;49071;0.000;0.000;2022-11-20T16:05:42;100109.75;;;18.49;41.85
62976;BME280;49071;0.000;0.000;2022-11-20T16:08:42;100099.72;;;18.72;41.63
62976;BME280;49071;0.000;0.000;2022-11-20T16:11:42;100098.72;;;18.85;41.44
62976;BME280;49071;0.000;0.000;2022-11-20T16:14:42;100103.53;;;18.99;41.26
62976;BME280;49071;0.000;0.000;2022-11-20T16:18:01;100107.13;;;19.14;41.04
62976;BME280;49071;0.000;0.000;2022-11-20T16:21:01;100096.09;;;19.26;41.06
62976;BME280;49071;0.000;0.000;2022-11-20T16:24:03;100101.84;;;19.37;40.83
62976;BME280;49071;0.000;0.000;2022-11-20T16:27:04;100103.16;;;19.56;40.55
62976;BME280;49071;0.000;0.000;2022-11-20T16:30:04;100107.88;;;19.65;40.37
62976;BME280;49071;0.000;0.000;2022-11-20T16:33:08;100109.91;;;19.79;40.35
62976;BME280;49071;0.000;0.000;2022-11-20T16:36:13;100105.09;;;19.65;40.67
62976;BME280;49071;0.000;0.000;2022-11-20T16:39:14;100112.16;;;19.60;40.74
62976;BME280;49071;0.000;0.000;2022-11-20T16:42:14;100117.56;;;19.49;40.79
62976;BME280;49071;0.000;0.000;2022-11-20T16:45:14;100113.63;;;19.41;41.09
62976;BME280;49071;0.000;0.000;2022-11-20T16:48:15;100119.94;;;19.36;41.03
62976;BME280;49071;0.000;0.000;2022-11-20T16:51:16;100130.34;;;19.21;41.32
62976;BME280;49071;0.000;0.000;2022-11-20T16:54:16;100127.78;;;19.02;41.73
62976;BME280;49071;0.000;0.000;2022-11-20T16:57:16;100133.28;;;19.11;41.61
62976;BME280;49071;0.000;0.000;2022-11-20T17:00:17;100129.50;;;19.14;41.60
62976;BME280;49071;0.000;0.000;2022-11-20T17:03:17;100135.88;;;19.00;41.70
62976;BME280;49071;0.000;0.000;2022-11-20T17:06:19;100138.09;;;18.96;41.78
62976;BME280;49071;0.000;0.000;2022-11-20T17:09:20;100131.06;;;19.01;41.51
62976;BME280;49071;0.000;0.000;2022-11-20T17:12:20;100139.91;;;18.99;41.70
62976;BME280;49071;0.000;0.000;2022-11-20T17:15:20;100128.72;;;18.99;41.65
62976;BME280;49071;0.000;0.000;2022-11-20T17:18:21;100122.44;;;18.89;41.91
62976;BME280;49071;0.000;0.000;2022-11-20T17:21:21;100121.34;;;18.72;41.76
62976;BME280;49071;0.000;0.000;2022-11-20T17:24:21;100122.53;;;18.65;42.06
62976;BME280;49071;0.000;0.000;2022-11-20T17:27:21;100122.00;;;18.52;41.56
62976;BME280;49071;0.000;0.000;2022-11-20T17:30:22;100120.50;;;18.66;41.59
62976;BME280;49071;0.000;0.000;2022-11-20T17:33:22;100126.56;;;18.64;41.67
62976;BME280;49071;0.000;0.000;2022-11-20T17:36:22;100126.19;;;18.71;41.57
62976;BME280;49071;0.000;0.000;2022-11-20T17:39:22;100129.50;;;18.85;41.37
62976;BME280;49071;0.000;0.000;2022-11-20T17:42:23;100126.72;;;18.85;41.58
62976;BME280;49071;0.000;0.000;2022-11-20T17:45:26;100125.44;;;19.01;41.34
62976;BME280;49071;0.000;0.000;2022-11-20T17:48:26;100129.59;;;19.20;41.12
62976;BME280;49071;0.000;0.000;2022-11-20T17:51:29;100123.88;;;19.29;40.84
62976;BME280;49071;0.000;0.000;2022-11-20T17:54:29;100122.91;;;19.32;40.91
62976;BME280;49071;0.000;0.000;2022-11-20T17:57:29;100125.81;;;19.38;40.83
62976;BME280;49071;0.000;0.000;2022-11-20T18:00:48;100133.28;;;19.61;40.35
62976;BME280;49071;0.000;0.000;2022-11-20T18:03:49;100129.41;;;19.74;40.38
62976;BME280;49071;0.000;0.000;2022-11-20T18:06:49;100127.47;;;19.80;40.03
62976;BME280;49071;0.000;0.000;2022-11-20T18:09:49;100131.34;;;19.82;40.09
62976;BME280;49071;0.000;0.000;2022-11-20T18:12:49;100117.53;;;19.79;40.22
62976;BME280;49071;0.000;0.000;2022-11-20T18:15:50;100118.03;;;19.63;40.70
62976;BME280;49071;0.000;0.000;2022-11-20T18:18:52;100120.19;;;19.53;40.64
62976;BME280;49071;0.000;0.000;2022-11-20T18:21:53;100113.63;;;19.41;40.75
62976;BME280;49071;0.000;0.000;2022-11-20T18:24:53;100112.91;;;19.26;41.23
62976;BME280;49071;0.000;0.000;2022-11-20T18:27:53;100113.19;;;19.13;41.34
62976;BME280;49071;0.000;0.000;2022-11-20T18:30:53;100108.47;;;19.04;41.40
62976;BME280;49071;0.000;0.000;2022-11-20T18:33:54;100099.41;;;18.94;41.53
62976;BME280;49071;0.000;0.000;2022-11-20T18:36:54;100097.09;;;18.93;41.39
62976;BME280;49071;0.000;0.000;2022-11-20T18:39:55;100093.00;;;18.94;41.55
62976;BME280;49071;0.000;0.000;2022-11-20T18:42:57;100086.25;;;19.01;41.38
62976;BME280;49071;0.000;0.000;2022-11-20T18:46:16;100088.66;;;19.08;41.00
62976;BME280;49071;0.000;0.000;2022-11-20T18:49:18;100088.88;;;19.04;41.47
62976;BME280;49071;0.000;0.000;2022-11-20T18:52:23;100083.38;;;19.10;41.39
62976;BME280;49071;0.000;0.000;2022-11-20T18:55:23;100085.09;;;19.07;41.35
62976;BME280;49071;0.000;0.000;2022-11-20T18:58:26;100097.94;;;19.14;41.16
62976;BME280;49071;0.000;0.000;2022-11-20T19:01:26;100093.56;;;19.28;41.07
62976;BME280;49071;0.000;0.000;2022-11-20T19:04:27;100087.28;;;19.33;40.82
62976;BME280;49071;0.000;0.000;2022-11-20T19:07:28;100082.06;;;19.40;40.89
62976;BME280;49071;0.000;0.000;2022-11-20T19:10:28;100083.41;;;19.45;40.75
62976;BME280;49071;0.000;0.000;2022-11-20T19:13:30;100079.06;;;19.44;40.69
62976;BME280;49071;0.000;0.000;2022-11-20T19:16:31;100071.47;;;19.65;40.29
62976;BME280;49071;0.000;0.000;2022-11-20T19:19:32;100065.50;;;19.57;40.43
62976;BME280;49071;0.000;0.000;2022-11-20T19:22:32;100067.16;;;19.49;40.76
62976;BME280;49071;0.000;0.000;2022-11-20T19:25:33;100071.91;;;19.43;40.66
62976;BME280;49071;0.000;0.000;2022-11-20T19:28:33;100072.50;;;19.32;41.06
62976;BME280;49071;0.000;0.000;2022-11-20T19:31:34;100079.00;;;19.24;41.02
62976;BME280;49071;0.000;0.000;2022-11-20T19:34:34;100082.50;;;19.18;41.13
62976;BME280;49071;0.000;0.000;2022-11-20T19:37:34;100086.63;;;19.08;41.25
62976;BME280;49071;0.000;0.000;2022-11-20T19:40:35;100078.44;;;19.05;41.21
62976;BME280;49071;0.000;0.000;2022-11-20T19:43:35;100078.06;;;18.97;41.56
62976;BME280;49071;0.000;0.000;2022-11-20T19:46:36;100087.16;;;18.92;41.55
62976;BME280;49071;0.000;0.000;2022-11-20T19:49:36;100085.50;;;18.85;41.67
62976;BME280;49071;0.000;0.000;2022-11-20T19:52:39;100086.94;;;18.81;41.79
62976;BME280;49071;0.000;0.000;2022-11-20T19:55:39;100087.97;;;18.68;41.93
62976;BME280;49071;0.000;0.000;2022-11-20T19:58:39;100081.50;;;18.62;41.83
62976;BME280;49071;0.000;0.000;2022-11-20T20:01:39;100079.09;;;18.55;42.00
62976;BME280;49071;0.000;0.000;2022-11-20T20:04:40;100081.78;;;18.49;42.12
62976;BME280;49071;0.000;0.000;2022-11-20T20:07:40;100080.91;;;18.43;42.09
62976;BME280;49071;0.000;0.000;2022-11-20T20:10:40;100076.16;;;18.34;42.23
62976;BME280;49071;0.000;0.000;2022-11-20T20:13:41;100073.25;;;18.29;42.50
62976;BME280;49071;0.000;0.000;2022-11-20T20:16:41;100072.56;;;18.19;42.56
62976;BME280;49071;0.000;0.000;2022-11-20T20:19:42;100072.75;;;18.16;42.67
62976;BME280;49071;0.000;0.000;2022-11-20T20:22:42;100077.94;;;18.08;42.89
62976;BME280;49071;0.000;0.000;2022-11-20T20:25:42;100077.81;;;18.02;42.72
62976;BME280;49071;0.000;0.000;2022-11-20T20:28:46;100081.41;;;18.03;42.77
62976;BME280;49071;0.000;0.000;2022-11-20T20:31:46;100083.94;;;17.91;43.03
62976;BME280;49071;0.000;0.000;2022-11-20T20:34:47;100082.28;;;17.85;43.11
62976;BME280;49071;0.000;0.000;2022-11-20T20:37:47;100069.41;;;17.78;43.15
62976;BME280;49071;0.000;0.000;2022-11-20T20:40:47;100072.84;;;17.73;43.56
62976;BME280;49071;0.000;0.000;2022-11-20T20:43:48;100069.41;;;17.78;43.25
62976;BME280;49071;0.000;0.000;2022-11-20T20:47:07;100062.47;;;17.74;43.45
62976;BME280;49071;0.000;0.000;2022-11-20T20:50:09;100063.03;;;17.54;43.44
